Time;durP1;ratioP1;P1;durP2;ratioP2;P2;SDS_P1;SDS_P2;PMS_P1;PMS_P2;Temp;Humidity;BMP_temperature;BMP_pressure;BME280_temperature;BME280_humidity;BME280_pressure;Samples;Min_cycle;Max_cycle;Signal;HPM_P1;HPM_P2
2021/10/09 00:00:12;;;;;;;74.57;50.50;;;;;;;9.55;100.00;102776.28;5025560;28;20032;-63
2021/10/09 00:02:38;;;;;;;75.75;51.83;;;;;;;9.58;100.00;102781.69;5019059;28;20021;-62
2021/10/09 00:05:05;;;;;;;73.20;51.10;;;;;;;9.55;100.00;102781.56;5023126;28;20393;-62
2021/10/09 00:07:30;;;;;;;79.60;53.72;;;;;;;9.49;100.00;102776.94;5020627;28;20033;-63
2021/10/09 00:10:00;;;;;;;80.60;52.78;;;;;;;9.51;100.00;102775.28;5019375;28;20025;-63
2021/10/09 00:12:26;;;;;;;76.88;53.08;;;;;;;9.47;100.00;102775.09;5016831;28;20018;-62
2021/10/09 00:14:52;;;;;;;76.70;51.55;;;;;;;9.37;100.00;102772.06;5020715;28;20048;-63
2021/10/09 00:17:19;;;;;;;84.35;54.53;;;;;;;9.39;100.00;102778.34;5021490;28;20472;-63
2021/10/09 00:19:44;;;;;;;84.50;53.35;;;;;;;9.37;100.00;102774.72;5019558;28;20101;-63
2021/10/09 00:22:10;;;;;;;76.63;51.42;;;;;;;9.31;100.00;102771.84;5023030;28;20105;-63
2021/10/09 00:24:35;;;;;;;80.68;52.17;;;;;;;9.28;100.00;102777.00;5020422;28;20029;-63
2021/10/09 00:27:00;;;;;;;80.70;52.88;;;;;;;9.25;100.00;102785.69;5019140;28;20018;-62
2021/10/09 00:29:26;;;;;;;82.68;54.92;;;;;;;9.19;100.00;102779.28;5022180;28;20030;-62
2021/10/09 00:31:51;;;;;;;86.25;55.25;;;;;;;9.27;100.00;102782.22;5019123;28;20034;-64
2021/10/09 00:34:16;;;;;;;83.15;54.90;;;;;;;9.19;100.00;102777.53;5021589;28;20080;-63
2021/10/09 00:36:41;;;;;;;83.78;54.33;;;;;;;9.17;100.00;102775.66;5022539;28;20030;-62
2021/10/09 00:39:07;;;;;;;85.72;55.75;;;;;;;9.18;100.00;102785.38;5021531;28;20014;-63
2021/10/09 00:41:33;;;;;;;79.78;54.08;;;;;;;9.18;100.00;102774.81;5021893;28;20034;-64
2021/10/09 00:44:15;;;;;;;83.95;53.60;;;;;;;9.15;100.00;102770.31;5021941;28;20033;-63
2021/10/09 00:46:43;;;;;;;85.57;54.28;;;;;;;9.14;100.00;102772.88;5018411;28;20058;-63
2021/10/09 00:49:15;;;;;;;86.25;56.65;;;;;;;9.11;100.00;102768.38;5023780;28;20404;-63
2021/10/09 00:51:44;;;;;;;89.25;56.40;;;;;;;9.05;100.00;102763.75;5019552;28;20044;-62
2021/10/09 00:54:11;;;;;;;87.40;56.10;;;;;;;9.00;100.00;102764.41;5022689;28;20540;-64
2021/10/09 00:56:38;;;;;;;87.28;56.38;;;;;;;9.05;100.00;102762.84;5016872;28;20112;-63
2021/10/09 00:59:04;;;;;;;83.28;55.22;;;;;;;9.01;100.00;102758.28;5025695;28;20029;-62
2021/10/09 01:01:30;;;;;;;89.07;57.47;;;;;;;9.03;100.00;102768.06;5019495;28;20117;-64
2021/10/09 01:03:57;;;;;;;96.53;58.97;;;;;;;9.01;100.00;102761.84;5022704;28;20108;-64
2021/10/09 01:06:23;;;;;;;92.53;57.97;;;;;;;8.97;100.00;102761.63;5025855;28;20063;-63
2021/10/09 01:08:48;;;;;;;97.75;60.60;;;;;;;8.94;100.00;102767.72;5024551;28;20129;-63
2021/10/09 01:11:14;;;;;;;93.80;58.60;;;;;;;8.96;100.00;102768.66;5022745;28;20392;-63
2021/10/09 01:13:39;;;;;;;97.40;60.15;;;;;;;8.90;100.00;102765.78;5022585;28;20058;-62
2021/10/09 01:16:23;;;;;;;96.47;60.03;;;;;;;8.84;100.00;102769.06;5019278;28;20057;-63
2021/10/09 01:18:54;;;;;;;91.20;57.88;;;;;;;8.77;100.00;102766.09;5018902;28;20041;-62
2021/10/09 01:21:21;;;;;;;99.40;60.30;;;;;;;8.73;100.00;102765.94;5020713;28;20064;-63
2021/10/09 01:23:47;;;;;;;105.85;64.25;;;;;;;8.75;100.00;102763.38;5021841;28;20028;-63
2021/10/09 01:26:13;;;;;;;101.57;61.88;;;;;;;8.72;100.00;102764.16;5021110;28;20472;-63
2021/10/09 01:28:45;;;;;;;101.55;61.50;;;;;;;8.68;100.00;102762.22;5017244;28;20033;-62
2021/10/09 01:31:11;;;;;;;102.55;62.55;;;;;;;8.62;100.00;102761.97;5018204;28;20018;-63
2021/10/09 01:33:36;;;;;;;90.63;57.13;;;;;;;8.63;100.00;102762.84;5018973;28;20441;-63
2021/10/09 01:36:02;;;;;;;99.20;61.08;;;;;;;8.63;100.00;102762.84;5021639;28;20061;-63
2021/10/09 01:38:28;;;;;;;101.97;62.83;;;;;;;8.58;100.00;102769.66;5018129;28;20567;-62
2021/10/09 01:40:55;;;;;;;111.30;66.20;;;;;;;8.57;100.00;102762.59;5019276;28;20036;-63
2021/10/09 01:43:21;;;;;;;102.97;61.63;;;;;;;8.53;100.00;102766.81;5016163;28;20076;-62
2021/10/09 01:45:48;;;;;;;98.75;61.47;;;;;;;8.47;100.00;102761.28;5018225;28;20025;-62
2021/10/09 01:48:15;;;;;;;97.15;59.92;;;;;;;8.42;100.00;102761.06;5019335;28;20017;-62
2021/10/09 01:50:40;;;;;;;113.70;66.00;;;;;;;8.46;100.00;102765.69;5022832;28;20021;-62
2021/10/09 01:53:07;;;;;;;99.63;60.38;;;;;;;8.42;100.00;102757.50;5018199;28;20088;-62
2021/10/09 01:55:34;;;;;;;97.88;59.58;;;;;;;8.39;100.00;102760.94;5020542;28;20026;-62
2021/10/09 01:57:59;;;;;;;109.50;66.72;;;;;;;8.37;100.00;102770.50;5020616;28;20018;-62
2021/10/09 02:00:25;;;;;;;108.28;63.88;;;;;;;8.33;100.00;102758.00;5021759;28;20030;-62
2021/10/09 02:02:51;;;;;;;113.80;65.85;;;;;;;8.28;100.00;102757.81;5018993;28;20022;-63
2021/10/09 02:05:16;;;;;;;105.53;63.60;;;;;;;8.31;100.00;102764.94;5026851;28;20033;-62
2021/10/09 02:07:42;;;;;;;108.38;64.55;;;;;;;8.22;100.00;102759.28;5022468;28;20020;-63
2021/10/09 02:10:08;;;;;;;108.88;63.70;;;;;;;8.25;100.00;102762.94;5026130;28;20357;-62
2021/10/09 02:12:34;;;;;;;108.57;64.35;;;;;;;8.15;100.00;102759.00;5021009;28;20037;-62
2021/10/09 02:15:22;;;;;;;105.90;61.75;;;;;;;8.20;100.00;102756.59;5021451;28;20034;-62
2021/10/09 02:25:52;;;;;;;104.90;61.72;;;;;;;8.11;100.00;102756.16;5017817;28;20044;-62
2021/10/09 02:28:19;;;;;;;102.82;61.95;;;;;;;8.08;100.00;102745.47;5019759;28;20034;-63
2021/10/09 02:30:45;;;;;;;102.18;61.15;;;;;;;8.00;100.00;102751.31;5019115;28;20097;-62
2021/10/09 02:33:11;;;;;;;97.03;59.15;;;;;;;7.96;100.00;102752.00;5019384;28;20030;-63
2021/10/09 02:35:37;;;;;;;101.18;60.70;;;;;;;7.99;100.00;102752.16;5018293;28;20036;-62
2021/10/09 02:38:03;;;;;;;101.05;60.90;;;;;;;7.93;100.00;102743.06;5016103;28;20026;-65
2021/10/09 02:40:29;;;;;;;105.22;62.78;;;;;;;7.94;100.00;102748.41;5021068;28;20468;-63
2021/10/09 02:42:54;;;;;;;94.07;57.80;;;;;;;7.79;100.00;102745.06;5024271;28;20021;-64
2021/10/09 02:45:20;;;;;;;101.82;60.67;;;;;;;7.85;100.00;102742.72;5017722;28;20053;-62
2021/10/09 02:47:45;;;;;;;92.22;55.33;;;;;;;7.73;100.00;102740.41;5020561;28;20366;-62
2021/10/09 02:50:13;;;;;;;104.82;60.95;;;;;;;7.75;100.00;102730.88;5016469;28;20038;-62
2021/10/09 02:52:40;;;;;;;90.03;56.85;;;;;;;7.72;100.00;102741.25;5019238;28;20044;-63
2021/10/09 02:55:06;;;;;;;99.63;59.55;;;;;;;7.65;100.00;102740.06;5020061;28;20064;-62
2021/10/09 02:57:31;;;;;;;94.88;56.83;;;;;;;7.57;100.00;102740.53;5017608;28;20017;-62
2021/10/09 02:59:57;;;;;;;102.15;60.85;;;;;;;7.59;100.00;102733.63;5018331;28;20088;-62
2021/10/09 03:02:22;;;;;;;103.78;61.30;;;;;;;7.58;100.00;102737.06;5016676;28;20032;-63
2021/10/09 03:04:47;;;;;;;104.45;63.13;;;;;;;7.61;100.00;102737.22;5019881;28;20124;-64
2021/10/09 03:07:13;;;;;;;101.75;61.60;;;;;;;7.56;100.00;102739.63;5018323;28;20057;-63
2021/10/09 03:09:38;;;;;;;100.78;60.40;;;;;;;7.56;100.00;102734.38;5018778;28;20062;-61
2021/10/09 03:12:04;;;;;;;95.32;58.17;;;;;;;7.43;100.00;102738.16;5019117;28;20033;-63
2021/10/09 03:14:29;;;;;;;99.63;59.42;;;;;;;7.44;100.00;102732.06;5017679;28;20026;-63
2021/10/09 03:16:55;;;;;;;109.40;62.92;;;;;;;7.35;100.00;102734.25;5019500;28;20109;-63
2021/10/09 03:19:20;;;;;;;113.25;65.30;;;;;;;7.31;100.00;102746.38;5017237;28;20457;-63
2021/10/09 03:21:46;;;;;;;107.50;62.50;;;;;;;7.28;100.00;102740.97;5017758;28;20090;-63
2021/10/09 03:24:12;;;;;;;105.53;62.70;;;;;;;7.24;100.00;102736.38;5016994;28;20026;-62
2021/10/09 03:26:37;;;;;;;108.88;64.13;;;;;;;7.19;100.00;102745.75;5017528;28;20041;-62
2021/10/09 03:29:02;;;;;;;119.25;67.90;;;;;;;7.18;100.00;102743.06;5018483;28;20053;-62
2021/10/09 03:31:28;;;;;;;117.80;64.47;;;;;;;7.15;100.00;102746.47;5016319;28;20040;-63
2021/10/09 03:33:53;;;;;;;122.22;67.30;;;;;;;7.12;100.00;102743.66;5019737;28;20524;-62
2021/10/09 03:36:18;;;;;;;115.10;63.50;;;;;;;7.05;100.00;102741.56;5015975;28;20426;-62
2021/10/09 03:38:44;;;;;;;121.65;67.95;;;;;;;7.03;100.00;102744.09;5017690;28;20030;-62
2021/10/09 03:41:11;;;;;;;118.18;67.18;;;;;;;7.07;100.00;102738.19;5016548;28;20022;-62
2021/10/09 03:43:37;;;;;;;124.50;69.88;;;;;;;7.11;100.00;102739.25;5019211;28;20040;-62
2021/10/09 03:53:55;;;;;;;120.35;67.28;;;;;;;7.03;100.00;102746.75;5020569;28;20145;-63
2021/10/09 03:56:21;;;;;;;119.00;67.57;;;;;;;7.01;100.00;102748.41;5022997;28;20120;-62
2021/10/09 03:58:46;;;;;;;120.88;67.47;;;;;;;6.97;100.00;102746.44;5021612;28;20112;-63
2021/10/09 04:01:11;;;;;;;115.68;66.80;;;;;;;6.92;100.00;102743.59;5020787;28;20037;-62
2021/10/09 04:03:37;;;;;;;118.70;67.22;;;;;;;6.92;100.00;102745.34;5023483;28;20044;-62
2021/10/09 04:06:02;;;;;;;125.97;70.47;;;;;;;6.87;100.00;102737.19;5023301;28;20029;-64
2021/10/09 04:08:27;;;;;;;128.98;71.03;;;;;;;6.84;100.00;102737.03;5022280;28;20041;-62
2021/10/09 04:10:53;;;;;;;128.50;71.95;;;;;;;6.80;100.00;102738.63;5020789;28;20026;-62
2021/10/09 04:13:18;;;;;;;129.40;70.68;;;;;;;6.84;100.00;102744.03;5024660;28;20044;-62
2021/10/09 04:15:43;;;;;;;136.27;75.00;;;;;;;6.85;100.00;102741.47;5023067;28;20064;-63
2021/10/09 04:18:08;;;;;;;136.05;73.90;;;;;;;6.84;100.00;102744.94;5023236;28;20486;-63
2021/10/09 04:20:34;;;;;;;146.00;76.57;;;;;;;6.88;100.00;102749.53;5026376;28;20022;-62
2021/10/09 04:22:59;;;;;;;155.00;81.28;;;;;;;6.91;100.00;102741.78;5023365;28;20030;-63
2021/10/09 04:25:24;;;;;;;150.45;79.97;;;;;;;6.87;100.00;102746.81;5025684;28;20598;-63
2021/10/09 04:27:50;;;;;;;161.20;83.15;;;;;;;6.87;100.00;102745.06;5022643;28;20018;-62
2021/10/09 04:30:15;;;;;;;145.82;78.55;;;;;;;6.81;100.00;102739.53;5022478;28;20713;-63
2021/10/09 04:32:41;;;;;;;160.43;81.72;;;;;;;6.85;100.00;102748.47;5021730;28;20037;-62
2021/10/09 04:35:06;;;;;;;147.85;77.85;;;;;;;6.79;100.00;102741.19;5022575;28;20083;-62
2021/10/09 04:37:31;;;;;;;135.60;74.10;;;;;;;6.76;100.00;102751.56;5020560;28;20061;-63
2021/10/09 04:39:57;;;;;;;141.63;74.30;;;;;;;6.83;100.00;102750.13;5022697;28;20025;-62
2021/10/09 04:42:22;;;;;;;126.50;69.05;;;;;;;6.74;100.00;102747.94;5025230;28;20468;-62
2021/10/09 04:44:48;;;;;;;123.40;68.25;;;;;;;6.68;100.00;102745.00;5019698;28;20038;-61
2021/10/09 04:47:13;;;;;;;121.18;68.68;;;;;;;6.63;100.00;102742.13;5025451;28;20022;-62
2021/10/09 04:49:38;;;;;;;120.55;67.70;;;;;;;6.66;100.00;102744.03;5019590;28;20478;-63
2021/10/09 04:52:04;;;;;;;126.50;69.45;;;;;;;6.63;100.00;102745.66;5021708;28;20083;-62
2021/10/09 04:54:29;;;;;;;136.90;73.03;;;;;;;6.61;100.00;102744.69;5021046;28;20096;-62
2021/10/09 04:56:54;;;;;;;140.00;74.20;;;;;;;6.62;100.00;102743.84;5020447;28;20116;-63
2021/10/09 04:59:20;;;;;;;132.13;72.57;;;;;;;6.57;100.00;102750.59;5022458;28;20101;-63
2021/10/09 05:01:45;;;;;;;136.93;73.90;;;;;;;6.60;100.00;102747.25;5020780;28;20018;-63
2021/10/09 05:04:11;;;;;;;135.07;72.90;;;;;;;6.59;100.00;102751.56;5022564;28;20056;-62
2021/10/09 05:06:36;;;;;;;125.97;70.47;;;;;;;6.57;100.00;102749.72;5019028;28;20022;-62
2021/10/09 05:09:01;;;;;;;123.07;67.57;;;;;;;6.61;100.00;102742.06;5021938;28;20453;-62
2021/10/09 05:11:27;;;;;;;127.18;69.47;;;;;;;6.65;100.00;102750.09;5019892;28;20026;-63
2021/10/09 05:13:52;;;;;;;146.07;70.75;;;;;;;6.64;100.00;102754.47;5020360;28;20021;-62
2021/10/09 05:16:17;;;;;;;155.80;75.05;;;;;;;6.70;100.00;102752.13;5020442;28;20041;-62
2021/10/09 05:18:42;;;;;;;247.38;80.03;;;;;;;6.73;100.00;102752.28;5021654;28;20041;-63
2021/10/09 05:21:09;;;;;;;156.07;77.30;;;;;;;6.74;100.00;102763.69;5020205;28;20068;-63
2021/10/09 05:23:36;;;;;;;149.05;78.50;;;;;;;6.71;100.00;102764.44;5022355;28;20025;-63
2021/10/09 05:26:02;;;;;;;197.80;81.82;;;;;;;6.81;100.00;102765.81;5017953;28;20037;-63
2021/10/09 05:28:43;;;;;;;238.40;81.90;;;;;;;6.82;100.00;102757.09;5020903;28;20021;-62
2021/10/09 05:31:11;;;;;;;160.18;78.65;;;;;;;6.83;100.00;102756.28;5019693;28;20444;-63
2021/10/09 05:33:37;;;;;;;168.23;78.95;;;;;;;6.84;100.00;102751.94;5024860;28;20029;-63
2021/10/09 05:36:06;;;;;;;287.83;83.50;;;;;;;6.89;100.00;102759.22;5021730;28;20030;-62
2021/10/09 05:38:32;;;;;;;181.45;81.50;;;;;;;6.86;100.00;102759.06;5027358;28;20021;-62
2021/10/09 05:40:57;;;;;;;180.75;81.18;;;;;;;6.90;100.00;102762.75;5025714;28;20079;-62
2021/10/09 05:43:24;;;;;;;209.60;84.32;;;;;;;6.93;100.00;102763.81;5022758;28;20104;-65
2021/10/09 05:45:50;;;;;;;318.00;89.35;;;;;;;6.95;100.00;102764.78;5021210;28;20473;-63
2021/10/09 05:48:15;;;;;;;262.38;87.57;;;;;;;6.98;100.00;102764.94;5023338;28;20104;-63
2021/10/09 06:50:12;;;;;;;161.50;75.95;;;;;;;7.20;100.00;102794.91;5017250;28;20500;-64
2021/10/09 07:01:04;;;;;;;159.15;80.95;;;;;;;7.30;100.00;102815.59;4996374;28;20073;-62
2021/10/09 07:03:29;;;;;;;152.05;79.22;;;;;;;7.37;100.00;102805.34;4995185;28;20038;-63
2021/10/09 07:05:55;;;;;;;167.80;79.97;;;;;;;7.46;100.00;102811.97;4998039;28;20030;-65
2021/10/09 07:08:21;;;;;;;170.70;79.43;;;;;;;7.52;100.00;102815.75;4979811;28;20037;-64
2021/10/09 07:10:48;;;;;;;183.15;83.70;;;;;;;7.57;100.00;102823.06;4993984;28;20106;-64
2021/10/09 07:13:14;;;;;;;184.18;84.03;;;;;;;7.63;100.00;102817.16;4997252;28;20428;-64
2021/10/09 07:15:39;;;;;;;200.60;87.30;;;;;;;7.66;100.00;102822.59;4995912;28;20042;-65
2021/10/09 07:18:11;;;;;;;205.52;86.75;;;;;;;7.67;100.00;102816.47;4996605;28;20073;-64
2021/10/09 07:20:37;;;;;;;210.43;87.85;;;;;;;7.75;100.00;102817.75;4993823;28;20039;-63
2021/10/09 07:23:03;;;;;;;196.63;85.90;;;;;;;7.94;100.00;102822.16;4998018;28;20041;-64
2021/10/09 07:25:29;;;;;;;202.85;86.47;;;;;;;8.01;100.00;102824.22;4996769;28;20430;-65
2021/10/09 07:27:54;;;;;;;197.18;86.80;;;;;;;8.07;100.00;102820.06;4982080;28;20034;-64
2021/10/09 07:30:19;;;;;;;191.68;86.35;;;;;;;8.13;100.00;102828.28;4997686;28;20401;-66
2021/10/09 07:32:45;;;;;;;190.35;88.10;;;;;;;8.17;100.00;102832.84;4999827;28;20109;-62
2021/10/09 07:35:12;;;;;;;196.25;84.50;;;;;;;8.26;100.00;102830.63;5016424;28;20056;-62
2021/10/09 07:37:38;;;;;;;193.90;85.82;;;;;;;8.39;100.00;102832.09;5026676;28;20071;-62
2021/10/09 07:40:05;;;;;;;192.13;86.30;;;;;;;8.52;100.00;102828.31;5021507;28;20393;-62
2021/10/09 07:42:30;;;;;;;185.38;86.10;;;;;;;8.65;100.00;102838.56;5021299;28;20029;-62
2021/10/09 07:44:56;;;;;;;180.27;84.68;;;;;;;8.68;100.00;102836.06;5024842;28;20030;-62
2021/10/09 07:47:21;;;;;;;191.70;87.55;;;;;;;8.78;100.00;102831.16;5025741;28;20021;-63
2021/10/09 07:49:46;;;;;;;182.57;84.25;;;;;;;8.79;100.00;102838.25;5023107;28;20046;-63
2021/10/09 07:52:12;;;;;;;182.85;84.05;;;;;;;8.89;100.00;102837.81;5023501;28;20109;-63
2021/10/09 07:54:37;;;;;;;181.93;83.82;;;;;;;8.93;100.00;102839.75;5025887;28;20021;-63
2021/10/09 07:57:04;;;;;;;175.02;84.43;;;;;;;8.98;100.00;102845.22;5028516;28;20096;-63
2021/10/09 07:59:29;;;;;;;180.35;84.22;;;;;;;9.04;100.00;102830.56;5025028;28;20432;-63
2021/10/09 08:01:55;;;;;;;177.02;84.85;;;;;;;9.06;100.00;102842.06;5024695;28;20036;-63
2021/10/09 08:04:20;;;;;;;164.40;80.95;;;;;;;9.08;100.00;102850.94;5023041;28;20121;-65
2021/10/09 08:06:45;;;;;;;151.70;80.10;;;;;;;9.08;100.00;102844.78;5022773;28;20030;-64
2021/10/09 08:09:12;;;;;;;153.50;78.22;;;;;;;9.13;100.00;102840.59;5022489;28;20082;-63
2021/10/09 08:11:38;;;;;;;155.20;80.25;;;;;;;9.15;100.00;102848.59;5020769;28;20391;-64
2021/10/09 08:14:04;;;;;;;146.82;78.32;;;;;;;9.13;100.00;102847.59;5025201;28;20045;-63
2021/10/09 08:16:30;;;;;;;154.40;78.13;;;;;;;9.20;100.00;102844.38;5018584;28;20401;-63
2021/10/09 08:18:59;;;;;;;146.88;78.43;;;;;;;9.24;100.00;102848.97;5021602;28;20040;-63
2021/10/09 08:21:26;;;;;;;149.65;79.50;;;;;;;9.28;100.00;102850.00;5018761;28;20112;-63
2021/10/09 08:40:07;;;;;;;137.23;75.07;;;;;;;10.32;100.00;102858.47;5018706;28;20041;-63
2021/10/09 08:42:33;;;;;;;135.32;74.97;;;;;;;10.53;100.00;102863.72;5018915;28;20022;-63
2021/10/09 08:44:59;;;;;;;127.50;71.90;;;;;;;10.63;100.00;102862.31;5019811;28;20034;-63
2021/10/09 08:47:25;;;;;;;119.32;66.75;;;;;;;10.67;100.00;102866.84;5019786;28;20034;-64
2021/10/09 08:49:50;;;;;;;119.05;68.38;;;;;;;10.73;100.00;102861.78;5020686;28;20118;-63
2021/10/09 08:52:22;;;;;;;124.25;70.28;;;;;;;10.75;100.00;102864.50;5019534;28;20136;-63
2021/10/09 08:54:49;;;;;;;120.38;68.38;;;;;;;10.85;100.00;102868.34;5022307;28;20649;-63
2021/10/09 08:57:20;;;;;;;121.18;70.47;;;;;;;10.93;100.00;102869.53;5018519;28;20022;-63
2021/10/09 09:00:06;;;;;;;121.37;71.37;;;;;;;10.96;100.00;102864.34;5021047;28;20030;-63
2021/10/09 09:02:41;;;;;;;118.90;68.05;;;;;;;11.03;100.00;102866.34;5020116;28;20042;-63
2021/10/09 09:41:13;;;;;;;;;;;;;;;15.81;85.43;102850.69;4864163;29;20501;-64
2021/10/09 09:43:40;;;;;;;92.18;54.65;;;;;;;16.64;70.63;102849.91;4864142;29;19923;-64
2021/10/09 09:46:17;;;;;;;88.30;52.20;;;;;;;17.39;69.44;102842.63;4858216;29;20030;-64
2021/10/09 09:48:45;;;;;;;83.78;51.75;;;;;;;18.01;66.53;102835.00;4858318;29;20046;-64
2021/10/09 09:51:12;;;;;;;78.85;49.53;;;;;;;18.42;62.09;102838.72;4896413;29;20043;-64
2021/10/09 09:53:42;;;;;;;79.63;49.60;;;;;;;18.69;61.50;102832.56;4898005;29;20595;-65
2021/10/09 09:56:09;;;;;;;79.32;49.85;;;;;;;18.89;60.78;102823.69;4895147;29;20044;-65
2021/10/09 09:58:38;;;;;;;78.07;49.17;;;;;;;19.33;58.98;102830.84;4897997;29;20536;-64
2021/10/09 10:01:06;;;;;;;77.05;48.17;;;;;;;19.66;57.26;102826.31;4897344;29;20399;-65
2021/10/09 10:03:32;;;;;;;77.38;49.40;;;;;;;19.97;55.39;102826.25;4895086;29;20577;-64
2021/10/09 10:05:58;;;;;;;75.68;47.85;;;;;;;20.48;55.06;102826.91;4897640;29;20036;-64
2021/10/09 10:08:25;;;;;;;72.03;44.50;;;;;;;20.92;53.10;102821.28;4940301;29;20043;-64
2021/10/09 10:10:52;;;;;;;69.95;44.38;;;;;;;21.39;50.75;102820.84;4941529;28;20384;-64
2021/10/09 10:13:18;;;;;;;73.97;45.50;;;;;;;21.79;48.98;102833.03;4941154;29;20047;-64
2021/10/09 10:15:45;;;;;;;72.85;45.20;;;;;;;22.04;47.27;102833.59;4980979;28;20073;-64
2021/10/09 10:18:12;;;;;;;74.30;45.00;;;;;;;22.39;48.01;102826.91;5018491;28;20056;-64
2021/10/09 10:20:51;;;;;;;69.88;44.65;;;;;;;22.80;48.86;102829.88;5019516;28;20044;-65
2021/10/09 10:23:37;;;;;;;69.68;42.40;;;;;;;22.85;48.66;102827.09;5019334;28;20488;-64
2021/10/09 10:26:20;;;;;;;69.80;42.88;;;;;;;22.91;49.03;102822.53;5017881;28;20025;-64
2021/10/09 10:28:52;;;;;;;69.53;43.25;;;;;;;23.38;43.56;102819.94;5016990;28;20038;-64
2021/10/09 10:31:18;;;;;;;68.82;43.35;;;;;;;23.75;42.28;102821.03;5017781;28;20646;-64
2021/10/09 10:33:44;;;;;;;66.40;42.35;;;;;;;23.95;41.30;102826.06;5019883;28;20073;-68
2021/10/09 10:36:31;;;;;;;69.28;42.70;;;;;;;23.93;40.91;102828.81;5022306;28;20448;-67
2021/10/09 10:38:57;;;;;;;71.47;42.75;;;;;;;24.11;40.39;102823.94;5019509;28;20087;-69
2021/10/09 10:41:40;;;;;;;71.13;43.70;;;;;;;24.86;43.23;102824.06;5026422;28;20018;-68
2021/10/09 10:44:07;;;;;;;68.63;43.15;;;;;;;24.80;39.16;102814.28;5020888;28;20036;-65
2021/10/09 10:49:19;;;;;;;72.05;44.28;;;;;;;25.15;39.03;102819.69;5022607;28;20381;-65
2021/10/09 10:54:38;;;;;;;66.55;44.55;;;;;;;26.25;37.15;102825.69;5022465;28;20029;-64
2021/10/09 10:57:06;;;;;;;72.22;44.80;;;;;;;26.36;36.99;102818.13;5021505;28;20430;-64
2021/10/09 10:59:33;;;;;;;72.70;45.10;;;;;;;26.33;36.87;102817.31;5022283;28;20033;-64
2021/10/09 11:02:09;;;;;;;66.35;43.58;;;;;;;26.41;38.73;102812.56;5020747;28;20057;-64
2021/10/09 11:04:36;;;;;;;67.50;44.72;;;;;;;26.49;36.56;102807.78;5020834;28;20115;-69
2021/10/09 11:07:03;;;;;;;73.95;45.65;;;;;;;26.02;35.52;102808.34;5022616;28;20079;-65
2021/10/09 11:09:29;;;;;;;72.80;46.40;;;;;;;25.72;36.95;102799.25;5022626;28;20032;-64
2021/10/09 11:11:54;;;;;;;70.85;44.42;;;;;;;26.14;36.53;102807.06;5019968;28;20160;-64
2021/10/09 11:14:21;;;;;;;73.68;46.88;;;;;;;26.36;35.87;102807.28;5021674;28;20112;-65
2021/10/09 11:16:47;;;;;;;70.47;46.78;;;;;;;27.02;35.05;102801.53;5021311;28;20021;-64
2021/10/09 11:19:12;;;;;;;71.43;45.50;;;;;;;26.18;34.78;102803.31;5021380;28;20472;-65
2021/10/09 11:21:54;;;;;;;68.82;43.75;;;;;;;26.32;37.30;102802.91;5019836;28;20025;-64
2021/10/09 11:24:19;;;;;;;71.25;45.85;;;;;;;26.19;35.61;102805.09;5020534;28;20041;-66
2021/10/09 11:26:53;;;;;;;71.40;46.55;;;;;;;26.27;37.08;102803.03;5025003;28;20049;-64
2021/10/09 11:29:19;;;;;;;72.65;45.88;;;;;;;26.60;35.10;102799.28;5022434;28;20021;-64
2021/10/09 11:31:44;;;;;;;69.70;45.65;;;;;;;27.46;33.67;102790.97;5023024;28;20079;-65
2021/10/09 11:34:09;;;;;;;70.63;44.83;;;;;;;28.42;32.96;102800.91;5017321;28;20018;-64
2021/10/09 11:36:38;;;;;;;71.88;46.08;;;;;;;29.08;32.23;102794.56;5020239;28;20083;-64
2021/10/09 11:39:14;;;;;;;68.82;45.08;;;;;;;29.37;30.69;102790.59;5016729;28;20084;-64
2021/10/09 11:41:42;;;;;;;73.60;46.78;;;;;;;29.76;30.35;102788.81;5017734;28;20030;-64
2021/10/09 11:44:20;;;;;;;73.35;46.55;;;;;;;30.17;30.71;102796.88;5020916;28;20104;-64
2021/10/09 11:47:21;;;;;;;68.32;44.58;;;;;;;30.39;28.60;102782.22;5019643;28;20113;-64
2021/10/09 11:55:29;;;;;;;63.08;42.55;;;;;;;30.05;29.06;102784.75;5018509;28;20504;-65
2021/10/09 11:57:57;;;;;;;60.78;40.75;;;;;;;29.97;29.39;102778.78;5017697;28;20030;-65
2021/10/09 12:00:28;;;;;;;65.32;40.90;;;;;;;30.85;29.46;102782.66;5015570;28;20029;-65
2021/10/09 12:02:54;;;;;;;62.55;40.88;;;;;;;31.56;27.02;102787.16;5015596;28;20046;-65
2021/10/09 12:05:20;;;;;;;65.68;44.17;;;;;;;31.25;27.43;102780.59;5018412;28;20028;-65
2021/10/09 12:08:13;;;;;;;64.93;41.03;;;;;;;31.75;29.26;102778.84;5017492;28;20022;-69
2021/10/09 12:10:38;;;;;;;59.55;38.70;;;;;;;32.20;26.02;102778.19;5016381;28;20030;-68
2021/10/09 12:13:05;;;;;;;65.65;40.45;;;;;;;32.06;25.48;102779.84;5018069;28;20021;-66
2021/10/09 12:15:33;;;;;;;67.70;42.80;;;;;;;31.82;26.45;102771.19;5015659;28;20076;-68
2021/10/09 12:17:59;;;;;;;61.67;41.50;;;;;;;31.80;26.09;102784.03;5017037;28;20034;-68
2021/10/09 12:20:29;;;;;;;65.32;41.15;;;;;;;31.55;26.82;102768.97;5015955;28;20477;-67
2021/10/09 12:22:56;;;;;;;61.13;40.17;;;;;;;31.54;25.77;102769.06;5020896;28;20473;-68
2021/10/09 12:25:27;;;;;;;63.90;41.22;;;;;;;31.27;26.73;102769.59;5018526;28;20018;-68
2021/10/09 12:28:01;;;;;;;62.22;40.92;;;;;;;31.31;27.86;102767.56;5021908;28;20068;-68
2021/10/09 12:30:34;;;;;;;63.00;40.70;;;;;;;31.34;27.70;102767.41;5017937;28;20029;-68
2021/10/09 12:32:59;;;;;;;59.15;39.58;;;;;;;32.05;25.96;102766.25;5020946;28;20057;-69
2021/10/09 12:35:30;;;;;;;61.05;39.90;;;;;;;32.29;26.26;102759.41;5021625;28;20026;-67
2021/10/09 12:37:59;;;;;;;61.30;40.80;;;;;;;32.70;25.15;102762.56;5023813;28;20105;-68
2021/10/09 12:40:28;;;;;;;62.20;40.15;;;;;;;33.06;25.12;102764.00;5021853;28;21020;-69
2021/10/09 12:42:55;;;;;;;60.63;40.15;;;;;;;32.36;24.78;102765.41;5023759;28;20068;-69
2021/10/09 12:45:22;;;;;;;61.38;41.50;;;;;;;32.29;24.80;102753.94;5026893;28;20026;-69
2021/10/09 12:47:48;;;;;;;60.72;40.03;;;;;;;32.16;24.39;102750.16;5020970;28;20454;-71
2021/10/09 12:50:14;;;;;;;64.50;40.25;;;;;;;31.97;25.92;102753.03;5023003;28;20069;-71
2021/10/09 12:52:40;;;;;;;64.35;41.33;;;;;;;32.18;25.06;102753.66;5023903;28;20048;-70
2021/10/09 12:55:07;;;;;;;61.22;38.85;;;;;;;32.01;25.50;102742.78;5019527;28;20034;-69
2021/10/09 12:57:33;;;;;;;60.50;38.67;;;;;;;32.14;25.76;102750.25;5021262;28;20362;-71
2021/10/09 13:00:00;;;;;;;63.35;41.08;;;;;;;32.22;25.11;102746.19;5023755;28;20065;-70
2021/10/09 13:02:25;;;;;;;62.20;40.70;;;;;;;32.62;24.53;102736.50;5017849;28;20116;-70
2021/10/09 13:04:51;;;;;;;58.75;39.45;;;;;;;32.63;25.23;102735.50;5024667;28;20127;-70
2021/10/09 13:07:17;;;;;;;66.25;41.38;;;;;;;33.24;24.58;102730.03;5020181;28;20465;-68
2021/10/09 13:09:42;;;;;;;58.00;37.47;;;;;;;32.79;23.65;102724.53;5023855;28;20369;-70
2021/10/09 13:12:11;;;;;;;56.97;37.75;;;;;;;33.39;23.22;102727.31;5022931;28;20029;-69
2021/10/09 13:14:37;;;;;;;60.22;38.20;;;;;;;34.24;22.89;102728.19;5022492;28;20037;-70
2021/10/09 13:17:02;;;;;;;58.38;38.33;;;;;;;34.90;21.91;102722.81;5020782;28;20034;-69
2021/10/09 13:19:28;;;;;;;59.13;39.05;;;;;;;34.50;22.10;102723.69;5023633;28;20041;-70
2021/10/09 13:21:53;;;;;;;61.72;38.88;;;;;;;33.87;21.92;102727.88;5021094;28;20060;-70
2021/10/09 13:24:18;;;;;;;60.88;39.42;;;;;;;33.50;23.50;102720.16;5018364;28;20579;-71
2021/10/09 13:26:44;;;;;;;60.13;38.22;;;;;;;33.18;22.88;102714.81;5023920;28;20037;-70
2021/10/09 13:29:09;;;;;;;57.08;38.65;;;;;;;33.29;23.59;102722.41;5021920;28;20477;-70
2021/10/09 13:31:36;;;;;;;58.17;39.67;;;;;;;33.26;23.29;102719.88;5023286;28;20373;-69